createdAt,value
2022-08-28T00:00:49.148Z,7.19
2022-08-28T00:01:53.402Z,7.50
2022-08-28T00:02:58.012Z,7.44
2022-08-28T00:04:06.061Z,8.56
2022-08-28T00:05:11.327Z,8.75
2022-08-28T00:06:15.497Z,7.87
2022-08-28T00:07:19.909Z,7.00
2022-08-28T00:08:24.111Z,6.75
2022-08-28T00:09:28.203Z,7.25
2022-08-28T00:10:33.370Z,6.56
2022-08-28T00:11:38.058Z,8.94
2022-08-28T00:12:42.151Z,8.00
2022-08-28T00:13:47.451Z,7.44
2022-08-28T00:14:51.520Z,6.75
2022-08-28T00:15:58.827Z,7.62
2022-08-28T00:17:03.245Z,7.50
2022-08-28T00:18:09.028Z,7.62
2022-08-28T00:19:14.094Z,7.56
2022-08-28T00:20:21.793Z,7.87
2022-08-28T00:21:25.971Z,7.19
2022-08-28T00:22:30.055Z,7.31
2022-08-28T00:23:45.068Z,2.62
2022-08-28T00:24:41.383Z,7.12
2022-08-28T00:25:45.682Z,7.50
2022-08-28T00:26:51.687Z,6.25
2022-08-28T00:27:58.849Z,8.13
2022-08-28T00:29:04.929Z,2.87
2022-08-28T00:30:09.991Z,8.50
2022-08-28T00:31:14.082Z,9.00
2022-08-28T00:32:18.312Z,6.56
2022-08-28T00:33:55.964Z,7.31
2022-08-28T00:34:33.432Z,7.87
2022-08-28T00:35:36.972Z,7.12
2022-08-28T00:36:41.279Z,8.06
2022-08-28T00:37:46.568Z,5.56
2022-08-28T00:38:52.259Z,7.37
2022-08-28T00:39:56.455Z,4.19
2022-08-28T00:41:03.651Z,6.12
2022-08-28T00:42:08.352Z,4.31
2022-08-28T00:43:31.388Z,7.75
2022-08-28T00:44:35.432Z,7.94
2022-08-28T00:45:40.311Z,6.25
2022-08-28T00:46:47.260Z,5.62
2022-08-28T00:47:51.688Z,7.44
2022-08-28T00:48:57.379Z,9.13
2022-08-28T00:50:02.888Z,6.75
2022-08-28T00:51:07.309Z,6.81
2022-08-28T00:52:12.502Z,6.06
2022-08-28T00:53:16.936Z,7.19
2022-08-28T00:54:22.037Z,3.37
2022-08-28T00:55:28.484Z,5.69
2022-08-28T00:56:34.466Z,6.12
2022-08-28T00:57:41.464Z,6.75
2022-08-28T00:58:48.358Z,6.87
2022-08-28T00:59:53.059Z,5.00
2022-08-28T01:00:57.387Z,1.12
2022-08-28T01:02:02.207Z,6.06
2022-08-28T01:03:07.340Z,6.69
2022-08-28T01:04:14.486Z,6.62
2022-08-28T01:05:21.508Z,7.06
2022-08-28T01:06:25.675Z,6.25
2022-08-28T01:07:29.921Z,6.06
2022-08-28T01:08:38.319Z,5.31
2022-08-28T01:09:47.696Z,5.50
2022-08-28T01:10:54.768Z,6.56
2022-08-28T01:12:06.078Z,6.25
2022-08-28T01:13:10.917Z,6.25
2022-08-28T01:14:17.070Z,5.12
2022-08-28T01:15:24.031Z,6.62
2022-08-28T01:16:33.804Z,4.75
2022-08-28T01:19:10.685Z,6.25
2022-08-28T01:20:19.728Z,5.50
2022-08-28T01:20:56.108Z,5.50
2022-08-28T01:21:28.477Z,5.12
2022-08-28T01:22:35.266Z,7.19
2022-08-28T01:23:57.479Z,5.00
2022-08-28T01:25:04.523Z,6.62
2022-08-28T01:26:11.004Z,5.56
2022-08-28T01:27:14.482Z,5.94
2022-08-28T01:28:18.966Z,4.62
2022-08-28T01:29:23.034Z,5.06
2022-08-28T01:30:29.660Z,5.87
2022-08-28T01:31:36.704Z,5.37
2022-08-28T01:32:47.157Z,5.25
2022-08-28T01:33:51.676Z,5.87
2022-08-28T01:34:56.995Z,5.94
2022-08-28T01:36:03.989Z,5.44
2022-08-28T01:37:08.073Z,5.50
2022-08-28T01:38:19.326Z,5.62
2022-08-28T01:39:21.490Z,5.25
2022-08-28T01:40:28.967Z,5.19
2022-08-28T01:41:33.072Z,5.31
2022-08-28T01:42:40.170Z,4.94
2022-08-28T01:43:44.615Z,5.94
2022-08-28T01:44:48.795Z,4.19
2022-08-28T01:45:56.021Z,5.12
2022-08-28T01:47:00.760Z,7.00
2022-08-28T01:48:07.067Z,5.19
2022-08-28T01:49:11.859Z,6.25
2022-08-28T01:50:19.343Z,5.69
2022-08-28T01:51:25.406Z,6.00
2022-08-28T01:52:29.216Z,6.25
2022-08-28T01:53:33.715Z,5.25
2022-08-28T01:54:38.164Z,6.50
2022-08-28T01:55:43.855Z,6.19
2022-08-28T01:56:48.030Z,7.62
2022-08-28T01:57:54.787Z,6.12
2022-08-28T01:59:00.787Z,7.69
2022-08-28T02:00:05.544Z,7.69
2022-08-28T02:01:15.296Z,6.56
2022-08-28T02:02:20.955Z,8.75
2022-08-28T02:03:25.709Z,7.81
2022-08-28T02:04:31.960Z,6.06
2022-08-28T02:05:36.858Z,7.87
2022-08-28T02:06:41.296Z,10.00
2022-08-28T02:07:45.265Z,8.13
2022-08-28T02:08:49.265Z,8.31
2022-08-28T02:09:53.253Z,9.44
2022-08-28T02:10:57.292Z,9.00
2022-08-28T02:12:01.395Z,8.50
2022-08-28T02:13:06.742Z,7.56
2022-08-28T02:14:10.862Z,9.94
2022-08-28T02:15:15.069Z,9.00
2022-08-28T02:16:21.399Z,6.06
2022-08-28T02:17:25.479Z,8.94
2022-08-28T02:18:29.804Z,9.25
2022-08-28T02:19:33.837Z,9.44
2022-08-28T02:20:38.443Z,10.31
2022-08-28T02:21:42.667Z,8.94
2022-08-28T02:22:46.794Z,11.12
2022-08-28T02:23:51.259Z,11.38
2022-08-28T02:24:55.315Z,10.25
2022-08-28T02:26:01.129Z,9.63
2022-08-28T02:27:05.950Z,10.31
2022-08-28T02:28:10.050Z,9.31
2022-08-28T02:29:14.487Z,10.75
2022-08-28T02:30:20.627Z,9.19
2022-08-28T02:31:27.733Z,9.75
2022-08-28T02:32:33.276Z,9.94
2022-08-28T02:33:52.694Z,8.69
2022-08-28T02:34:48.526Z,7.00
2022-08-28T02:35:52.778Z,8.50
2022-08-28T02:36:58.459Z,8.63
2022-08-28T02:38:02.482Z,11.31
2022-08-28T02:39:08.056Z,9.88
2022-08-28T02:40:15.620Z,10.31
2022-08-28T02:41:34.392Z,9.38
2022-08-28T02:42:29.655Z,10.69
2022-08-28T02:43:36.993Z,9.63
2022-08-28T02:44:42.473Z,10.06
2022-08-28T02:45:46.525Z,8.69
2022-08-28T02:46:52.161Z,10.06
2022-08-28T02:47:57.858Z,8.44
2022-08-28T02:49:01.896Z,10.81
2022-08-28T02:50:08.036Z,12.25
2022-08-28T02:51:13.874Z,11.06
2022-08-28T02:52:18.199Z,11.44
2022-08-28T02:53:23.762Z,11.12
2022-08-28T02:54:29.358Z,10.81
2022-08-28T02:55:34.317Z,11.31
2022-08-28T02:56:38.548Z,11.31
2022-08-28T02:57:42.915Z,12.25
2022-08-28T02:58:47.011Z,10.19
2022-08-28T02:59:52.670Z,10.69
2022-08-28T03:00:59.293Z,10.38
2022-08-28T03:02:04.523Z,11.75
2022-08-28T03:03:10.379Z,9.38
2022-08-28T03:04:14.472Z,11.94
2022-08-28T03:05:21.822Z,9.81
2022-08-28T03:06:26.206Z,11.56
2022-08-28T03:07:30.452Z,13.56
2022-08-28T03:08:34.612Z,14.25
2022-08-28T03:09:38.707Z,13.88
2022-08-28T03:10:42.843Z,12.56
2022-08-28T03:11:46.818Z,13.88
2022-08-28T03:12:50.936Z,11.19
2022-08-28T03:13:55.191Z,9.81
2022-08-28T03:14:59.452Z,14.31
2022-08-28T03:16:05.925Z,12.50
2022-08-28T03:17:09.975Z,10.13
2022-08-28T03:18:15.925Z,10.88
2022-08-28T03:19:20.265Z,12.19
2022-08-28T03:20:24.810Z,13.06
2022-08-28T03:21:30.335Z,11.44
2022-08-28T03:22:34.454Z,12.69
2022-08-28T03:23:39.568Z,11.75
2022-08-28T03:24:44.046Z,12.69
2022-08-28T03:25:48.261Z,13.38
2022-08-28T03:26:52.366Z,11.44
2022-08-28T03:27:56.901Z,8.94
2022-08-28T03:29:02.662Z,12.88
2022-08-28T03:30:08.635Z,10.69
2022-08-28T03:31:16.096Z,13.25
2022-08-28T03:32:20.142Z,11.50
2022-08-28T03:33:25.399Z,12.69
2022-08-28T03:34:29.409Z,13.62
2022-08-28T03:35:33.547Z,13.75
2022-08-28T03:36:37.611Z,11.38
2022-08-28T03:37:41.648Z,11.88
2022-08-28T03:38:45.814Z,12.44
2022-08-28T03:39:49.941Z,11.00
2022-08-28T03:40:54.702Z,10.88
2022-08-28T03:41:58.753Z,11.06
2022-08-28T03:43:02.830Z,11.94
2022-08-28T03:44:10.477Z,11.06
2022-08-28T03:45:16.214Z,11.06
2022-08-28T03:46:24.094Z,11.25
2022-08-28T03:47:28.148Z,11.12
2022-08-28T03:48:36.899Z,11.69
2022-08-28T03:49:41.039Z,9.75
2022-08-28T03:50:46.262Z,8.69
2022-08-28T03:51:51.820Z,9.13
2022-08-28T03:52:55.815Z,12.75
2022-08-28T03:54:01.427Z,10.75
2022-08-28T03:55:07.180Z,11.25
2022-08-28T03:56:19.266Z,8.63
2022-08-28T03:57:23.719Z,8.56
2022-08-28T03:59:48.851Z,9.31
2022-08-28T04:00:46.676Z,10.69
2022-08-28T04:01:46.262Z,7.00
2022-08-28T04:01:50.830Z,9.63
2022-08-28T04:02:54.879Z,9.75
2022-08-28T04:03:59.027Z,10.06
2022-08-28T04:05:03.318Z,10.31
2022-08-28T04:06:07.721Z,11.25
2022-08-28T04:07:12.244Z,9.06
2022-08-28T04:08:18.936Z,7.19
2022-08-28T04:09:22.981Z,9.88
2022-08-28T04:10:27.197Z,9.38
2022-08-28T04:11:31.506Z,8.13
2022-08-28T04:12:35.540Z,9.00
2022-08-28T04:13:39.534Z,8.94
2022-08-28T04:14:43.728Z,9.25
2022-08-28T04:15:49.299Z,9.63
2022-08-28T04:16:53.563Z,9.94
2022-08-28T04:17:59.205Z,10.31
2022-08-28T04:19:03.615Z,9.50
2022-08-28T04:20:09.427Z,8.88
2022-08-28T04:21:22.749Z,10.56
2022-08-28T04:22:26.781Z,7.94
2022-08-28T04:23:30.896Z,10.38
2022-08-28T04:24:34.922Z,9.13
2022-08-28T04:25:41.118Z,8.88
2022-08-28T04:26:45.439Z,8.75
2022-08-28T04:27:50.837Z,9.94
2022-08-28T04:28:56.118Z,8.06
2022-08-28T04:30:00.405Z,9.88
2022-08-28T04:31:05.254Z,9.69
2022-08-28T04:32:10.918Z,9.75
2022-08-28T04:33:16.426Z,10.44
2022-08-28T04:34:24.494Z,10.63
2022-08-28T04:35:29.897Z,10.94
2022-08-28T04:36:35.725Z,9.63
2022-08-28T04:37:41.911Z,9.75
2022-08-28T04:38:47.585Z,9.81
2022-08-28T04:39:54.734Z,10.38
2022-08-28T04:41:01.860Z,10.44
2022-08-28T04:42:09.398Z,8.75
2022-08-28T04:43:13.452Z,11.50
2022-08-28T04:44:19.013Z,9.13
2022-08-28T04:45:23.015Z,10.38
2022-08-28T04:46:31.002Z,9.44
2022-08-28T04:47:38.242Z,10.81
2022-08-28T04:48:46.225Z,10.38
2022-08-28T04:49:53.094Z,9.31
2022-08-28T04:50:57.304Z,11.06
2022-08-28T04:52:03.148Z,11.38
2022-08-28T04:53:07.186Z,9.00
2022-08-28T04:55:14.975Z,11.69
2022-08-28T04:55:54.615Z,11.06
2022-08-28T04:56:32.569Z,9.44
2022-08-28T04:57:47.795Z,6.69
2022-08-28T04:58:44.187Z,8.69
2022-08-28T04:59:49.226Z,11.19
2022-08-28T05:00:55.109Z,9.38
2022-08-28T05:02:01.885Z,9.06
2022-08-28T05:03:08.771Z,10.50
2022-08-28T05:04:13.369Z,10.38
2022-08-28T05:05:20.393Z,10.00
2022-08-28T05:06:31.876Z,8.44
2022-08-28T05:22:55.661Z,9.50
2022-08-28T05:23:57.766Z,9.25
2022-08-28T05:25:03.389Z,10.25
2022-08-28T05:26:19.861Z,8.13
2022-08-28T05:27:32.039Z,11.81
2022-08-28T05:28:36.243Z,9.63
2022-08-28T05:29:46.746Z,11.63
2022-08-28T05:30:48.075Z,11.75
2022-08-28T05:31:52.126Z,13.75
2022-08-28T05:32:56.350Z,11.44
2022-08-28T05:34:02.157Z,12.19
2022-08-28T05:35:06.635Z,12.88
2022-08-28T05:36:13.031Z,13.44
2022-08-28T05:37:19.689Z,12.81
2022-08-28T05:38:22.815Z,13.62
2022-08-28T05:39:26.906Z,11.81
2022-08-28T05:40:32.468Z,13.13
2022-08-28T05:41:37.817Z,11.63
2022-08-28T05:42:41.807Z,10.94
2022-08-28T05:43:45.807Z,11.44
2022-08-28T05:44:50.258Z,12.31
2022-08-28T05:46:04.932Z,11.56
2022-08-28T05:47:10.129Z,12.31
2022-08-28T05:48:14.257Z,11.00
2022-08-28T05:49:19.273Z,12.44
2022-08-28T05:50:25.232Z,12.75
2022-08-28T05:51:34.353Z,12.94
2022-08-28T05:52:36.995Z,9.50
2022-08-28T05:53:53.927Z,12.25
2022-08-28T05:54:52.273Z,10.19
2022-08-28T05:56:00.518Z,12.69
2022-08-28T05:57:04.938Z,9.63
2022-08-28T05:58:09.041Z,12.88
2022-08-28T05:59:15.514Z,10.88
2022-08-28T06:00:21.120Z,11.50
2022-08-28T06:01:28.195Z,11.00
2022-08-28T06:02:32.511Z,12.50
2022-08-28T06:03:40.063Z,11.75
2022-08-28T06:04:44.218Z,12.31
2022-08-28T06:05:56.141Z,11.56
2022-08-28T06:07:00.137Z,12.50
2022-08-28T06:08:04.346Z,12.00
2022-08-28T06:09:17.536Z,13.38
2022-08-28T06:10:23.136Z,11.25
2022-08-28T06:11:30.507Z,10.88
2022-08-28T06:12:35.320Z,13.13
2022-08-28T06:13:39.314Z,12.37
2022-08-28T06:14:43.447Z,10.06
2022-08-28T06:15:49.375Z,12.88
2022-08-28T06:16:55.978Z,10.63
2022-08-28T06:18:01.075Z,11.63
2022-08-28T06:19:05.617Z,11.81
2022-08-28T06:20:10.490Z,10.44
2022-08-28T06:21:14.837Z,10.88
2022-08-28T06:22:18.834Z,11.19
2022-08-28T06:23:24.701Z,11.50
2022-08-28T06:24:30.023Z,12.88
2022-08-28T06:25:45.703Z,12.56
2022-08-28T06:26:49.952Z,12.50
2022-08-28T06:27:53.975Z,14.63
2022-08-28T06:29:03.997Z,11.19
2022-08-28T06:30:09.300Z,11.94
2022-08-28T06:31:23.305Z,17.19
2022-08-28T06:32:19.363Z,13.31
2022-08-28T06:33:24.504Z,13.69
2022-08-28T06:34:33.912Z,14.94
2022-08-28T06:35:42.803Z,13.25
2022-08-28T06:36:50.603Z,13.50
2022-08-28T06:37:52.827Z,14.44
2022-08-28T06:39:02.359Z,13.00
2022-08-28T06:40:05.720Z,13.56
2022-08-28T06:41:09.814Z,14.13
2022-08-28T06:42:15.363Z,12.94
2022-08-28T06:43:21.761Z,13.88
2022-08-28T06:44:27.445Z,14.19
2022-08-28T06:45:33.135Z,13.25
2022-08-28T06:46:38.056Z,11.69
2022-08-28T06:47:43.045Z,13.56
2022-08-28T06:48:47.068Z,13.13
2022-08-28T06:49:51.170Z,13.06
2022-08-28T06:50:57.567Z,14.75
2022-08-28T06:52:01.738Z,12.13
2022-08-28T06:53:06.571Z,13.19
2022-08-28T06:54:11.783Z,12.44
2022-08-28T06:55:15.853Z,11.88
2022-08-28T06:56:25.927Z,13.00
2022-08-28T06:57:28.544Z,12.81
2022-08-28T06:58:33.047Z,12.31
2022-08-28T06:59:37.075Z,10.88
2022-08-28T07:00:42.172Z,9.19
2022-08-28T07:01:46.323Z,11.38
2022-08-28T07:02:51.947Z,11.06
2022-08-28T07:04:01.599Z,7.31
2022-08-28T07:05:06.175Z,11.75
2022-08-28T07:06:12.901Z,11.06
2022-08-28T07:07:31.564Z,8.63
2022-08-28T07:08:26.314Z,10.31
2022-08-28T07:09:30.290Z,10.75
2022-08-28T07:10:35.847Z,11.63
2022-08-28T07:11:42.956Z,10.44
2022-08-28T07:12:48.446Z,8.13
2022-08-28T07:13:53.158Z,9.25
2022-08-28T07:15:00.536Z,9.31
2022-08-28T07:16:04.822Z,14.00
2022-08-28T07:17:09.059Z,11.56
2022-08-28T07:18:13.422Z,9.31
2022-08-28T07:19:17.712Z,10.63
2022-08-28T07:20:22.856Z,11.69
2022-08-28T07:21:27.666Z,8.94
2022-08-28T07:22:34.719Z,10.31
2022-08-28T07:23:39.747Z,7.44
2022-08-28T07:24:45.302Z,7.31
2022-08-28T07:25:49.265Z,8.13
2022-08-28T07:26:53.596Z,9.44
2022-08-28T07:27:57.715Z,11.31
2022-08-28T07:29:09.852Z,9.69
2022-08-28T07:30:09.768Z,10.63
2022-08-28T07:31:19.815Z,11.19
2022-08-28T07:32:24.352Z,16.06
2022-08-28T07:33:29.934Z,11.50
2022-08-28T07:34:39.498Z,13.44
2022-08-28T07:35:44.344Z,14.19
2022-08-28T07:36:49.408Z,14.06
2022-08-28T07:37:53.463Z,15.31
2022-08-28T07:38:59.302Z,13.31
2022-08-28T07:40:03.800Z,11.56
2022-08-28T07:41:26.823Z,11.56
2022-08-28T07:42:35.557Z,10.13
2022-08-28T07:43:38.093Z,12.13
2022-08-28T07:44:42.115Z,10.00
2022-08-28T07:45:46.290Z,8.69
2022-08-28T07:46:58.203Z,8.81
2022-08-28T07:48:08.480Z,10.75
2022-08-28T07:49:14.075Z,9.63
2022-08-28T07:50:19.865Z,10.50
2022-08-28T07:51:28.329Z,9.25
2022-08-28T07:52:32.406Z,9.75
2022-08-28T07:53:36.897Z,9.50
2022-08-28T07:54:40.976Z,8.56
2022-08-28T07:55:45.147Z,7.75
2022-08-28T07:56:49.309Z,9.44
2022-08-28T07:57:54.840Z,10.19
2022-08-28T07:59:01.343Z,11.31
2022-08-28T08:00:07.260Z,8.06
2022-08-28T08:01:11.348Z,9.44
2022-08-28T08:02:16.660Z,8.44
2022-08-28T08:03:24.022Z,8.81
2022-08-28T08:04:28.026Z,9.13
2022-08-28T08:05:32.114Z,10.63
2022-08-28T08:06:37.745Z,9.75
2022-08-28T08:07:41.961Z,9.06
2022-08-28T08:08:47.457Z,8.63
2022-08-28T08:09:51.446Z,9.31
2022-08-28T08:11:04.082Z,8.75
2022-08-28T08:12:12.530Z,6.50
2022-08-28T08:13:16.633Z,8.81
2022-08-28T08:14:21.259Z,9.06
2022-08-28T08:15:32.020Z,8.06
2022-08-28T08:16:36.041Z,8.44
2022-08-28T08:17:40.188Z,7.44
2022-08-28T08:18:48.332Z,8.06
2022-08-28T08:22:19.934Z,9.25
2022-08-28T08:23:24.153Z,8.31
2022-08-28T08:24:28.955Z,8.06
2022-08-28T08:25:33.569Z,5.37
2022-08-28T08:26:39.005Z,8.81
2022-08-28T08:27:43.279Z,7.81
2022-08-28T08:28:49.090Z,4.69
2022-08-28T08:29:53.028Z,8.31
2022-08-28T08:31:14.655Z,8.31
2022-08-28T08:32:18.774Z,9.31
2022-08-28T08:33:22.809Z,9.13
2022-08-28T08:34:28.407Z,8.75
2022-08-28T08:35:35.196Z,8.25
2022-08-28T08:36:43.559Z,8.81
2022-08-28T08:37:49.232Z,8.38
2022-08-28T08:38:59.856Z,6.62
2022-08-28T08:40:08.728Z,7.44
2022-08-28T08:41:14.635Z,10.94
2022-08-28T08:42:29.096Z,11.31
2022-08-28T08:43:36.270Z,9.63
2022-08-28T08:44:44.856Z,6.81
2022-08-28T08:46:01.611Z,6.50
2022-08-28T08:47:20.361Z,7.94
2022-08-28T08:48:35.591Z,7.37
2022-08-28T08:49:48.617Z,7.75
2022-08-28T08:50:53.027Z,8.69
2022-08-28T08:52:08.521Z,6.19
2022-08-28T08:53:34.934Z,8.88
2022-08-28T08:54:44.032Z,7.06
2022-08-28T08:55:53.671Z,8.31
2022-08-28T08:57:02.568Z,8.88
2022-08-28T08:58:09.602Z,8.06
2022-08-28T08:59:22.202Z,8.13
2022-08-28T09:00:26.322Z,7.25
2022-08-28T09:01:51.534Z,7.62
2022-08-28T09:03:08.969Z,8.31
2022-08-28T09:05:20.449Z,8.38
2022-08-28T09:06:08.100Z,6.94
2022-08-28T09:07:15.150Z,8.06
2022-08-28T09:08:44.275Z,7.00
2022-08-28T09:09:55.161Z,7.75
2022-08-28T09:11:16.425Z,6.44
2022-08-28T09:12:33.745Z,6.44
2022-08-28T09:13:49.112Z,8.50
2022-08-28T09:15:02.314Z,3.19
2022-08-28T09:18:38.670Z,7.81
2022-08-28T09:19:55.301Z,6.25
2022-08-28T09:20:33.559Z,6.44
2022-08-28T09:21:46.521Z,6.44
2022-08-28T09:23:12.753Z,7.31
2022-08-28T09:24:14.034Z,5.81
2022-08-28T09:25:12.665Z,7.81
2022-08-28T09:26:25.951Z,7.69
2022-08-28T09:27:33.019Z,6.12
2022-08-28T09:28:41.726Z,6.87
2022-08-28T09:29:48.701Z,7.81
2022-08-28T09:31:03.586Z,6.62
2022-08-28T09:32:31.513Z,7.69
2022-08-28T09:33:44.244Z,7.81
2022-08-28T09:35:04.813Z,8.31
2022-08-28T09:36:26.867Z,6.00
2022-08-28T09:37:32.847Z,5.94
2022-08-28T09:38:38.485Z,6.12
2022-08-28T09:39:46.657Z,6.37
2022-08-28T09:40:50.517Z,6.50
2022-08-28T09:42:06.726Z,6.12
2022-08-28T09:43:20.052Z,6.00
2022-08-28T09:44:24.091Z,6.87
2022-08-28T09:45:32.347Z,7.25
2022-08-28T09:46:38.246Z,9.69
2022-08-28T09:47:58.788Z,7.75
2022-08-28T09:49:11.680Z,7.75
2022-08-28T09:50:25.800Z,5.81
2022-08-28T09:51:30.585Z,5.75
2022-08-28T09:52:36.899Z,8.00
2022-08-28T09:53:58.626Z,6.94
2022-08-28T09:55:06.248Z,5.69
2022-08-28T09:56:22.968Z,5.75
2022-08-28T09:57:37.181Z,6.44
2022-08-28T09:58:46.541Z,6.25
2022-08-28T09:59:57.152Z,5.81
2022-08-28T10:01:05.052Z,6.12
2022-08-28T10:02:13.872Z,9.88
2022-08-28T10:03:24.273Z,7.56
2022-08-28T10:04:34.096Z,6.19
2022-08-28T10:05:41.570Z,6.00
2022-08-28T10:07:00.796Z,5.06
2022-08-28T10:08:09.614Z,5.81
2022-08-28T10:09:32.475Z,7.12
2022-08-28T10:11:04.450Z,5.00
2022-08-28T10:12:21.776Z,5.00
2022-08-28T10:13:42.164Z,5.69
2022-08-28T10:15:04.177Z,5.06
2022-08-28T10:16:35.220Z,6.25
2022-08-28T10:18:07.341Z,6.00
2022-08-28T10:19:26.117Z,5.44
2022-08-28T10:20:52.654Z,7.00
2022-08-28T10:22:13.328Z,7.31
2022-08-28T10:23:18.048Z,6.56
2022-08-28T10:24:39.663Z,6.44
2022-08-28T10:26:03.435Z,6.31
2022-08-28T10:27:30.800Z,5.25
2022-08-28T10:28:54.668Z,6.75
2022-08-28T10:30:12.503Z,7.37
2022-08-28T10:31:40.364Z,7.75
2022-08-28T10:32:49.971Z,6.50
2022-08-28T10:34:09.407Z,7.06
2022-08-28T10:35:19.340Z,5.81
2022-08-28T10:36:33.949Z,7.37
2022-08-28T10:37:41.312Z,4.12
2022-08-28T10:38:53.162Z,9.81
2022-08-28T10:40:00.707Z,6.50
2022-08-28T10:41:09.065Z,8.69
2022-08-28T10:42:14.743Z,6.75
2022-08-28T10:43:27.684Z,9.63
2022-08-28T10:44:37.655Z,4.81
2022-08-28T10:45:43.200Z,6.19
2022-08-28T10:46:52.733Z,4.87
2022-08-28T10:47:59.755Z,6.37
2022-08-28T10:49:08.134Z,5.56
2022-08-28T10:50:30.364Z,8.63
2022-08-28T10:51:44.459Z,4.37
2022-08-28T10:53:12.543Z,5.12
2022-08-28T10:54:22.717Z,6.44
2022-08-28T10:55:50.645Z,6.00
2022-08-28T10:56:58.433Z,2.19
2022-08-28T10:58:24.565Z,4.62
2022-08-28T10:59:27.646Z,5.37
2022-08-28T11:00:26.657Z,4.19
2022-08-28T11:01:33.700Z,5.00
2022-08-28T11:02:39.871Z,5.00
2022-08-28T11:03:46.998Z,3.19
2022-08-28T11:04:55.353Z,4.81
2022-08-28T11:06:02.351Z,5.50
2022-08-28T11:07:09.430Z,5.37
2022-08-28T11:08:29.491Z,6.31
2022-08-28T11:09:40.997Z,0.25
2022-08-28T11:10:50.871Z,6.31
2022-08-28T11:12:05.417Z,5.50
2022-08-28T11:13:28.569Z,6.50
2022-08-28T11:14:48.376Z,5.56
2022-08-28T11:15:51.556Z,1.06
2022-08-28T11:17:04.514Z,6.00
2022-08-28T11:18:12.475Z,4.87
2022-08-28T11:19:25.494Z,5.00
2022-08-28T11:20:31.962Z,4.62
2022-08-28T11:21:54.503Z,5.25
2022-08-28T11:23:02.555Z,6.25
2022-08-28T11:24:23.000Z,5.12
2022-08-28T11:25:32.879Z,4.87
2022-08-28T11:26:39.907Z,5.37
2022-08-28T11:28:14.184Z,7.00
2022-08-28T11:29:55.737Z,9.81
2022-08-28T11:31:03.256Z,5.50
2022-08-28T11:32:35.504Z,6.00
2022-08-28T11:33:42.230Z,5.75
2022-08-28T11:35:08.705Z,6.00
2022-08-28T11:36:23.008Z,5.06
2022-08-28T11:37:35.906Z,6.25
2022-08-28T11:38:45.944Z,5.37
2022-08-28T11:39:51.316Z,5.00
2022-08-28T11:40:57.271Z,5.94
2022-08-28T11:42:13.711Z,5.00
2022-08-28T11:43:20.721Z,5.19
2022-08-28T11:44:28.040Z,6.25
2022-08-28T11:45:48.332Z,7.00
2022-08-28T11:46:54.309Z,5.19
2022-08-28T11:48:00.027Z,5.81
2022-08-28T11:49:07.466Z,4.56
2022-08-28T11:50:24.117Z,4.87
2022-08-28T11:51:48.372Z,5.19
2022-08-28T11:53:17.889Z,4.06
2022-08-28T11:54:24.889Z,5.44
2022-08-28T11:55:34.462Z,4.69
2022-08-28T11:57:01.079Z,5.62
2022-08-28T11:59:13.886Z,4.94
2022-08-28T12:00:30.381Z,4.62
2022-08-28T12:01:35.661Z,4.50
2022-08-28T12:02:43.059Z,4.44
2022-08-28T12:04:08.074Z,4.56
2022-08-28T12:05:14.286Z,1.62
2022-08-28T12:06:39.188Z,5.00
2022-08-28T12:07:46.603Z,4.50
2022-08-28T12:09:03.312Z,4.94
2022-08-28T12:10:28.196Z,5.44
2022-08-28T12:11:44.024Z,5.81
2022-08-28T12:12:50.967Z,0.69
2022-08-28T12:13:55.003Z,6.94
2022-08-28T12:15:03.195Z,4.62
2022-08-28T12:16:26.297Z,5.19
2022-08-28T12:18:11.768Z,5.06
2022-08-28T12:18:46.078Z,5.81
2022-08-28T12:20:14.058Z,6.75
2022-08-28T12:21:25.766Z,7.00
2022-08-28T12:24:23.120Z,6.44
2022-08-28T12:25:35.645Z,7.25
2022-08-28T12:26:44.194Z,6.87
2022-08-28T12:27:48.434Z,8.00
2022-08-28T12:29:11.634Z,6.12
2022-08-28T12:30:20.229Z,7.75
2022-08-28T12:31:43.504Z,8.88
2022-08-28T12:32:50.525Z,6.00
2022-08-28T12:34:00.540Z,6.62
2022-08-28T12:35:11.757Z,7.87
2022-08-28T12:36:18.613Z,6.12
2022-08-28T12:37:39.873Z,6.00
2022-08-28T12:38:42.313Z,6.87
2022-08-28T12:39:46.397Z,6.62
2022-08-28T12:40:52.737Z,6.87
2022-08-28T12:41:59.513Z,7.25
2022-08-28T12:43:09.268Z,6.69
2022-08-28T12:44:15.032Z,8.19
2022-08-28T12:45:29.376Z,7.50
2022-08-28T12:46:45.143Z,7.12
2022-08-28T12:47:55.607Z,6.69
2022-08-28T12:49:17.275Z,6.94
2022-08-28T12:50:28.189Z,7.81
2022-08-28T12:51:42.962Z,7.31
2022-08-28T12:53:41.614Z,8.00
2022-08-28T12:54:04.291Z,8.00
2022-08-28T12:55:10.056Z,6.87
2022-08-28T12:56:20.211Z,7.19
2022-08-28T12:57:25.043Z,8.38
2022-08-28T12:58:35.162Z,7.37
2022-08-28T12:59:42.124Z,8.13
2022-08-28T13:00:56.882Z,5.19
2022-08-28T13:02:06.739Z,6.19
2022-08-28T13:03:10.885Z,8.00
2022-08-28T13:04:31.097Z,7.37
2022-08-28T13:05:38.118Z,8.75
2022-08-28T13:06:42.313Z,8.75
2022-08-28T13:07:52.595Z,9.31
2022-08-28T13:09:06.781Z,8.38
2022-08-28T13:10:27.247Z,8.63
2022-08-28T13:11:34.226Z,8.19
2022-08-28T13:12:56.312Z,8.19
2022-08-28T13:15:09.383Z,6.37
2022-08-28T13:16:05.693Z,3.75
2022-08-28T13:17:13.654Z,7.06
2022-08-28T13:18:38.442Z,8.88
2022-08-28T13:19:42.636Z,8.63
2022-08-28T13:20:25.581Z,8.25
2022-08-28T13:20:49.725Z,8.13
2022-08-28T13:21:58.462Z,8.75
2022-08-28T13:23:24.488Z,9.38
2022-08-28T13:24:26.546Z,7.75
2022-08-28T13:25:36.736Z,8.94
2022-08-28T13:26:41.261Z,10.44
2022-08-28T13:27:54.674Z,9.00
2022-08-28T13:29:02.239Z,8.13
2022-08-28T13:30:18.510Z,10.00
2022-08-28T13:31:35.630Z,7.50
2022-08-28T13:32:42.906Z,7.75
2022-08-28T13:34:06.184Z,8.00
2022-08-28T13:35:24.039Z,9.31
2022-08-28T13:36:30.212Z,8.19
2022-08-28T13:37:47.486Z,8.13
2022-08-28T13:38:54.355Z,7.94
2022-08-28T13:40:30.249Z,9.94
2022-08-28T13:44:04.153Z,6.75
2022-08-28T13:45:11.941Z,9.69
2022-08-28T13:46:23.998Z,9.69
2022-08-28T13:48:39.631Z,10.81
2022-08-28T13:49:07.983Z,7.69
2022-08-28T13:49:53.571Z,9.13
2022-08-28T13:51:10.648Z,10.25
2022-08-28T13:52:24.930Z,10.06
2022-08-28T13:53:25.875Z,10.56
2022-08-28T13:54:32.684Z,10.25
2022-08-28T13:55:40.546Z,9.69
2022-08-28T13:57:36.319Z,9.50
2022-08-28T13:58:05.485Z,11.06
2022-08-28T13:59:01.529Z,12.63
2022-08-28T14:00:08.978Z,11.19
2022-08-28T14:01:13.336Z,10.63
2022-08-28T14:02:19.067Z,8.69
2022-08-28T14:03:24.742Z,10.31
2022-08-28T14:04:33.293Z,9.69
2022-08-28T14:05:37.397Z,10.75
2022-08-28T14:06:47.497Z,9.31
2022-08-28T14:09:18.626Z,9.94
2022-08-28T14:11:33.628Z,8.81
2022-08-28T14:12:47.199Z,9.69
2022-08-28T14:13:47.161Z,9.13
2022-08-28T14:14:07.250Z,9.31
2022-08-28T14:15:17.474Z,8.88
2022-08-28T14:19:06.350Z,10.88
2022-08-28T14:20:17.912Z,8.06
2022-08-28T14:22:55.107Z,9.88
2022-08-28T14:24:01.500Z,6.44
2022-08-28T14:25:07.578Z,8.88
2022-08-28T14:26:14.948Z,7.94
2022-08-28T14:27:19.142Z,5.19
2022-08-28T14:28:23.119Z,8.06
2022-08-28T14:29:27.146Z,6.75
2022-08-28T14:30:31.400Z,7.62
2022-08-28T14:31:37.155Z,10.63
2022-08-28T14:32:42.767Z,8.44
2022-08-28T14:33:46.714Z,7.94
2022-08-28T14:34:52.356Z,8.69
2022-08-28T14:35:56.357Z,7.56
2022-08-28T14:37:00.740Z,7.37
2022-08-28T14:38:06.768Z,8.38
2022-08-28T14:40:21.090Z,7.69
2022-08-28T14:41:25.937Z,8.63
2022-08-28T14:42:30.053Z,10.13
2022-08-28T14:43:34.094Z,8.44
2022-08-28T14:44:39.578Z,6.12
2022-08-28T14:45:49.070Z,7.06
2022-08-28T14:46:56.966Z,8.63
2022-08-28T14:48:04.162Z,10.19
2022-08-28T14:49:17.139Z,9.00
2022-08-28T14:50:19.939Z,10.06
2022-08-28T14:51:29.354Z,9.69
2022-08-28T14:52:30.128Z,10.44
2022-08-28T14:53:34.153Z,9.94
2022-08-28T14:54:41.714Z,4.25
2022-08-28T14:55:51.411Z,9.69
2022-08-28T14:56:57.129Z,10.75
2022-08-28T14:58:01.104Z,9.00
2022-08-28T14:59:07.191Z,9.56
2022-08-28T15:00:16.257Z,6.44
2022-08-28T15:01:26.811Z,9.13
2022-08-28T15:02:32.301Z,6.81
2022-08-28T15:03:36.498Z,6.87
2022-08-28T15:04:41.861Z,6.44
2022-08-28T15:05:46.300Z,5.69
2022-08-28T15:06:52.553Z,5.44
2022-08-28T15:07:56.606Z,5.62
2022-08-28T15:09:02.165Z,5.25
2022-08-28T15:10:06.619Z,5.00
2022-08-28T15:11:18.330Z,4.50
2022-08-28T15:12:21.128Z,5.12
2022-08-28T15:13:25.804Z,4.19
2022-08-28T15:14:31.691Z,4.69
2022-08-28T15:15:37.201Z,4.56
2022-08-28T15:16:46.915Z,4.37
2022-08-28T15:17:50.932Z,4.81
2022-08-28T15:18:56.311Z,4.25
2022-08-28T15:20:00.310Z,4.19
2022-08-28T15:21:08.344Z,4.00
2022-08-28T15:22:13.825Z,4.37
2022-08-28T15:23:22.514Z,3.75
2022-08-28T15:24:29.103Z,4.37
2022-08-28T15:25:33.227Z,5.00
2022-08-28T15:28:18.348Z,3.81
2022-08-28T15:29:00.439Z,4.00
2022-08-28T15:30:06.366Z,4.56
2022-08-28T15:31:11.007Z,1.56
2022-08-28T15:32:20.802Z,3.31